sensor_id;sensor_type;location;lat;lon;timestamp;P1;durP1;ratioP1;P2;durP2;ratioP2
28760;SDS011;15917;50.014;8.352;2023-08-20T00:01:23;9.50;;;4.95;;
28760;SDS011;15917;50.014;8.352;2023-08-20T00:03:50;8.73;;;4.82;;
28760;SDS011;15917;50.014;8.352;2023-08-20T00:06:17;10.57;;;5.38;;
28760;SDS011;15917;50.014;8.352;2023-08-20T00:08:44;15.02;;;5.20;;
28760;SDS011;15917;50.014;8.352;2023-08-20T00:11:11;12.82;;;4.72;;
28760;SDS011;15917;50.014;8.352;2023-08-20T00:13:37;9.80;;;5.32;;
28760;SDS011;15917;50.014;8.352;2023-08-20T00:16:03;7.60;;;4.60;;
28760;SDS011;15917;50.014;8.352;2023-08-20T00:18:29;14.20;;;5.47;;
28760;SDS011;15917;50.014;8.352;2023-08-20T00:20:54;7.38;;;4.90;;
28760;SDS011;15917;50.014;8.352;2023-08-20T00:23:21;10.88;;;5.50;;
28760;SDS011;15917;50.014;8.352;2023-08-20T00:25:47;8.57;;;4.72;;
28760;SDS011;15917;50.014;8.352;2023-08-20T00:28:12;11.00;;;5.18;;
28760;SDS011;15917;50.014;8.352;2023-08-20T00:30:39;7.63;;;4.47;;
28760;SDS011;15917;50.014;8.352;2023-08-20T00:33:04;7.63;;;4.88;;
28760;SDS011;15917;50.014;8.352;2023-08-20T00:35:30;13.52;;;5.63;;
28760;SDS011;15917;50.014;8.352;2023-08-20T00:37:56;10.98;;;4.88;;
28760;SDS011;15917;50.014;8.352;2023-08-20T00:40:22;10.82;;;5.00;;
28760;SDS011;15917;50.014;8.352;2023-08-20T00:42:47;7.68;;;4.65;;
28760;SDS011;15917;50.014;8.352;2023-08-20T00:45:13;6.68;;;4.97;;
28760;SDS011;15917;50.014;8.352;2023-08-20T00:47:39;10.35;;;4.47;;
28760;SDS011;15917;50.014;8.352;2023-08-20T00:50:05;7.30;;;4.72;;
28760;SDS011;15917;50.014;8.352;2023-08-20T00:52:32;9.27;;;4.75;;
28760;SDS011;15917;50.014;8.352;2023-08-20T00:54:58;12.15;;;4.95;;
28760;SDS011;15917;50.014;8.352;2023-08-20T00:57:25;10.10;;;4.68;;
28760;SDS011;15917;50.014;8.352;2023-08-20T00:59:51;9.70;;;4.20;;
28760;SDS011;15917;50.014;8.352;2023-08-20T01:02:20;9.68;;;4.85;;
28760;SDS011;15917;50.014;8.352;2023-08-20T01:04:46;9.10;;;5.15;;
28760;SDS011;15917;50.014;8.352;2023-08-20T01:12:36;10.13;;;5.63;;
28760;SDS011;15917;50.014;8.352;2023-08-20T01:15:03;12.38;;;4.85;;
28760;SDS011;15917;50.014;8.352;2023-08-20T01:17:29;12.23;;;5.15;;
28760;SDS011;15917;50.014;8.352;2023-08-20T01:19:57;6.60;;;4.57;;
28760;SDS011;15917;50.014;8.352;2023-08-20T01:22:40;8.00;;;5.20;;
28760;SDS011;15917;50.014;8.352;2023-08-20T01:25:27;13.43;;;5.85;;
28760;SDS011;15917;50.014;8.352;2023-08-20T01:30:53;16.02;;;5.13;;
28760;SDS011;15917;50.014;8.352;2023-08-20T01:33:21;10.68;;;5.15;;
28760;SDS011;15917;50.014;8.352;2023-08-20T01:35:47;11.02;;;4.95;;
28760;SDS011;15917;50.014;8.352;2023-08-20T01:38:14;14.73;;;5.10;;
28760;SDS011;15917;50.014;8.352;2023-08-20T01:40:39;13.23;;;5.32;;
28760;SDS011;15917;50.014;8.352;2023-08-20T01:43:05;11.02;;;5.35;;
28760;SDS011;15917;50.014;8.352;2023-08-20T01:45:31;8.57;;;5.10;;
28760;SDS011;15917;50.014;8.352;2023-08-20T01:47:56;7.68;;;4.85;;
28760;SDS011;15917;50.014;8.352;2023-08-20T01:50:22;11.68;;;4.68;;
28760;SDS011;15917;50.014;8.352;2023-08-20T01:52:47;12.55;;;5.13;;
28760;SDS011;15917;50.014;8.352;2023-08-20T01:55:13;7.45;;;5.40;;
28760;SDS011;15917;50.014;8.352;2023-08-20T01:57:39;10.48;;;4.85;;
28760;SDS011;15917;50.014;8.352;2023-08-20T02:00:05;12.07;;;5.32;;
28760;SDS011;15917;50.014;8.352;2023-08-20T02:02:38;12.75;;;4.95;;
28760;SDS011;15917;50.014;8.352;2023-08-20T02:05:04;9.98;;;5.32;;
28760;SDS011;15917;50.014;8.352;2023-08-20T02:07:30;13.45;;;5.38;;
28760;SDS011;15917;50.014;8.352;2023-08-20T02:12:24;12.27;;;4.50;;
28760;SDS011;15917;50.014;8.352;2023-08-20T02:14:51;10.18;;;4.80;;
28760;SDS011;15917;50.014;8.352;2023-08-20T02:17:20;11.60;;;4.85;;
28760;SDS011;15917;50.014;8.352;2023-08-20T02:19:47;10.27;;;4.90;;
28760;SDS011;15917;50.014;8.352;2023-08-20T02:22:12;9.25;;;5.03;;
28760;SDS011;15917;50.014;8.352;2023-08-20T02:24:38;10.50;;;4.97;;
28760;SDS011;15917;50.014;8.352;2023-08-20T02:27:04;11.05;;;4.85;;
28760;SDS011;15917;50.014;8.352;2023-08-20T02:29:29;12.80;;;5.75;;
28760;SDS011;15917;50.014;8.352;2023-08-20T02:31:55;10.70;;;5.22;;
28760;SDS011;15917;50.014;8.352;2023-08-20T02:34:21;9.18;;;4.60;;
28760;SDS011;15917;50.014;8.352;2023-08-20T02:36:47;8.95;;;4.95;;
28760;SDS011;15917;50.014;8.352;2023-08-20T02:39:13;11.07;;;5.15;;
28760;SDS011;15917;50.014;8.352;2023-08-20T02:41:40;9.88;;;5.18;;
28760;SDS011;15917;50.014;8.352;2023-08-20T02:44:08;16.58;;;5.15;;
28760;SDS011;15917;50.014;8.352;2023-08-20T02:46:33;11.57;;;5.35;;
28760;SDS011;15917;50.014;8.352;2023-08-20T02:48:59;15.55;;;5.20;;
28760;SDS011;15917;50.014;8.352;2023-08-20T02:51:26;12.15;;;5.75;;
28760;SDS011;15917;50.014;8.352;2023-08-20T02:53:52;18.40;;;5.57;;
28760;SDS011;15917;50.014;8.352;2023-08-20T02:56:18;9.13;;;5.18;;
28760;SDS011;15917;50.014;8.352;2023-08-20T02:58:44;14.85;;;5.80;;
28760;SDS011;15917;50.014;8.352;2023-08-20T03:01:23;11.20;;;6.03;;
28760;SDS011;15917;50.014;8.352;2023-08-20T03:03:51;11.52;;;6.43;;
28760;SDS011;15917;50.014;8.352;2023-08-20T03:06:17;13.20;;;5.25;;
28760;SDS011;15917;50.014;8.352;2023-08-20T03:08:43;17.35;;;5.28;;
28760;SDS011;15917;50.014;8.352;2023-08-20T03:11:09;11.80;;;5.43;;
28760;SDS011;15917;50.014;8.352;2023-08-20T03:13:34;12.88;;;4.88;;
28760;SDS011;15917;50.014;8.352;2023-08-20T03:16:00;10.38;;;5.22;;
28760;SDS011;15917;50.014;8.352;2023-08-20T03:18:26;9.52;;;4.93;;
28760;SDS011;15917;50.014;8.352;2023-08-20T03:20:53;10.43;;;5.78;;
28760;SDS011;15917;50.014;8.352;2023-08-20T03:23:20;9.23;;;5.30;;
28760;SDS011;15917;50.014;8.352;2023-08-20T03:25:45;12.02;;;5.85;;
28760;SDS011;15917;50.014;8.352;2023-08-20T03:28:11;9.20;;;5.13;;
28760;SDS011;15917;50.014;8.352;2023-08-20T03:30:37;14.23;;;5.90;;
28760;SDS011;15917;50.014;8.352;2023-08-20T03:33:02;14.07;;;5.15;;
28760;SDS011;15917;50.014;8.352;2023-08-20T03:35:31;12.52;;;5.78;;
28760;SDS011;15917;50.014;8.352;2023-08-20T03:37:57;14.75;;;5.65;;
28760;SDS011;15917;50.014;8.352;2023-08-20T03:40:22;10.85;;;4.97;;
28760;SDS011;15917;50.014;8.352;2023-08-20T03:42:48;6.85;;;4.60;;
28760;SDS011;15917;50.014;8.352;2023-08-20T03:45:15;14.48;;;5.25;;
28760;SDS011;15917;50.014;8.352;2023-08-20T03:47:41;11.75;;;5.57;;
28760;SDS011;15917;50.014;8.352;2023-08-20T03:50:09;12.63;;;4.97;;
28760;SDS011;15917;50.014;8.352;2023-08-20T03:52:35;9.90;;;4.93;;
28760;SDS011;15917;50.014;8.352;2023-08-20T03:55:00;12.18;;;5.75;;
28760;SDS011;15917;50.014;8.352;2023-08-20T03:57:27;12.65;;;5.13;;
28760;SDS011;15917;50.014;8.352;2023-08-20T03:59:52;12.30;;;5.65;;
28760;SDS011;15917;50.014;8.352;2023-08-20T04:02:18;11.50;;;5.03;;
28760;SDS011;15917;50.014;8.352;2023-08-20T04:04:43;9.48;;;5.65;;
28760;SDS011;15917;50.014;8.352;2023-08-20T04:07:09;10.48;;;5.55;;
28760;SDS011;15917;50.014;8.352;2023-08-20T04:09:34;12.77;;;5.53;;
28760;SDS011;15917;50.014;8.352;2023-08-20T04:12:01;8.88;;;5.38;;
28760;SDS011;15917;50.014;8.352;2023-08-20T04:14:28;13.95;;;5.47;;
28760;SDS011;15917;50.014;8.352;2023-08-20T04:16:54;9.05;;;5.20;;
28760;SDS011;15917;50.014;8.352;2023-08-20T04:19:19;9.07;;;4.82;;
28760;SDS011;15917;50.014;8.352;2023-08-20T04:21:45;14.93;;;5.50;;
28760;SDS011;15917;50.014;8.352;2023-08-20T04:24:11;9.77;;;5.68;;
28760;SDS011;15917;50.014;8.352;2023-08-20T04:26:38;11.88;;;5.28;;
28760;SDS011;15917;50.014;8.352;2023-08-20T04:29:04;12.38;;;5.45;;
28760;SDS011;15917;50.014;8.352;2023-08-20T04:31:29;13.02;;;6.07;;
28760;SDS011;15917;50.014;8.352;2023-08-20T04:34:03;10.68;;;5.45;;
28760;SDS011;15917;50.014;8.352;2023-08-20T04:36:39;12.82;;;5.10;;
28760;SDS011;15917;50.014;8.352;2023-08-20T04:39:04;9.77;;;5.28;;
28760;SDS011;15917;50.014;8.352;2023-08-20T04:41:33;10.73;;;5.55;;
28760;SDS011;15917;50.014;8.352;2023-08-20T04:43:58;13.13;;;6.28;;
28760;SDS011;15917;50.014;8.352;2023-08-20T04:46:25;8.55;;;5.78;;
28760;SDS011;15917;50.014;8.352;2023-08-20T04:48:51;18.98;;;5.63;;
28760;SDS011;15917;50.014;8.352;2023-08-20T04:51:18;11.95;;;5.13;;
28760;SDS011;15917;50.014;8.352;2023-08-20T04:53:44;12.63;;;6.05;;
28760;SDS011;15917;50.014;8.352;2023-08-20T04:56:10;18.15;;;6.65;;
28760;SDS011;15917;50.014;8.352;2023-08-20T04:58:36;11.55;;;6.18;;
28760;SDS011;15917;50.014;8.352;2023-08-20T05:01:01;8.38;;;5.40;;
28760;SDS011;15917;50.014;8.352;2023-08-20T05:03:28;9.48;;;5.68;;
28760;SDS011;15917;50.014;8.352;2023-08-20T05:05:54;12.98;;;5.85;;
28760;SDS011;15917;50.014;8.352;2023-08-20T05:08:20;14.10;;;5.68;;
28760;SDS011;15917;50.014;8.352;2023-08-20T05:10:46;10.80;;;5.97;;
28760;SDS011;15917;50.014;8.352;2023-08-20T05:13:12;13.93;;;5.80;;
28760;SDS011;15917;50.014;8.352;2023-08-20T05:15:37;11.50;;;5.43;;
28760;SDS011;15917;50.014;8.352;2023-08-20T05:18:03;11.18;;;5.03;;
28760;SDS011;15917;50.014;8.352;2023-08-20T05:20:29;11.27;;;5.53;;
28760;SDS011;15917;50.014;8.352;2023-08-20T05:22:54;12.95;;;5.47;;
28760;SDS011;15917;50.014;8.352;2023-08-20T05:25:20;13.80;;;5.20;;
28760;SDS011;15917;50.014;8.352;2023-08-20T05:27:47;11.77;;;5.80;;
28760;SDS011;15917;50.014;8.352;2023-08-20T05:30:12;8.48;;;5.20;;
28760;SDS011;15917;50.014;8.352;2023-08-20T05:32:38;9.30;;;5.22;;
28760;SDS011;15917;50.014;8.352;2023-08-20T05:35:04;8.82;;;5.57;;
28760;SDS011;15917;50.014;8.352;2023-08-20T05:37:31;8.32;;;5.85;;
28760;SDS011;15917;50.014;8.352;2023-08-20T05:39:57;10.38;;;5.18;;
28760;SDS011;15917;50.014;8.352;2023-08-20T05:42:23;9.75;;;5.20;;
28760;SDS011;15917;50.014;8.352;2023-08-20T05:44:58;11.05;;;5.13;;
28760;SDS011;15917;50.014;8.352;2023-08-20T05:47:26;12.52;;;5.82;;
28760;SDS011;15917;50.014;8.352;2023-08-20T05:49:52;11.18;;;5.65;;
28760;SDS011;15917;50.014;8.352;2023-08-20T05:52:19;15.65;;;5.22;;
28760;SDS011;15917;50.014;8.352;2023-08-20T05:54:44;16.55;;;5.68;;
28760;SDS011;15917;50.014;8.352;2023-08-20T05:57:10;9.57;;;5.38;;
28760;SDS011;15917;50.014;8.352;2023-08-20T05:59:36;13.38;;;4.95;;
28760;SDS011;15917;50.014;8.352;2023-08-20T06:02:01;12.88;;;6.03;;
28760;SDS011;15917;50.014;8.352;2023-08-20T06:04:27;11.95;;;5.38;;
28760;SDS011;15917;50.014;8.352;2023-08-20T06:06:53;17.70;;;5.03;;
28760;SDS011;15917;50.014;8.352;2023-08-20T06:09:19;10.85;;;5.20;;
28760;SDS011;15917;50.014;8.352;2023-08-20T06:11:44;16.23;;;4.80;;
28760;SDS011;15917;50.014;8.352;2023-08-20T06:14:10;6.97;;;4.60;;
28760;SDS011;15917;50.014;8.352;2023-08-20T06:16:35;10.38;;;5.55;;
28760;SDS011;15917;50.014;8.352;2023-08-20T06:19:01;9.48;;;5.28;;
28760;SDS011;15917;50.014;8.352;2023-08-20T06:21:27;10.10;;;4.63;;
28760;SDS011;15917;50.014;8.352;2023-08-20T06:23:52;12.15;;;4.75;;
28760;SDS011;15917;50.014;8.352;2023-08-20T06:26:18;12.38;;;5.75;;
28760;SDS011;15917;50.014;8.352;2023-08-20T06:28:45;11.70;;;4.63;;
28760;SDS011;15917;50.014;8.352;2023-08-20T06:31:10;11.82;;;5.22;;
28760;SDS011;15917;50.014;8.352;2023-08-20T06:33:36;17.65;;;5.72;;
28760;SDS011;15917;50.014;8.352;2023-08-20T06:36:02;9.07;;;5.13;;
28760;SDS011;15917;50.014;8.352;2023-08-20T06:38:27;7.63;;;5.25;;
28760;SDS011;15917;50.014;8.352;2023-08-20T06:40:53;9.15;;;5.18;;
28760;SDS011;15917;50.014;8.352;2023-08-20T06:43:18;12.43;;;5.95;;
28760;SDS011;15917;50.014;8.352;2023-08-20T06:45:44;11.32;;;5.55;;
28760;SDS011;15917;50.014;8.352;2023-08-20T06:48:10;12.85;;;5.55;;
28760;SDS011;15917;50.014;8.352;2023-08-20T06:50:35;9.40;;;5.28;;
28760;SDS011;15917;50.014;8.352;2023-08-20T06:53:01;8.10;;;5.20;;
28760;SDS011;15917;50.014;8.352;2023-08-20T06:55:26;14.77;;;5.40;;
28760;SDS011;15917;50.014;8.352;2023-08-20T06:57:52;11.80;;;5.80;;
28760;SDS011;15917;50.014;8.352;2023-08-20T07:00:17;14.80;;;5.00;;
28760;SDS011;15917;50.014;8.352;2023-08-20T07:02:44;13.32;;;5.55;;
28760;SDS011;15917;50.014;8.352;2023-08-20T07:05:10;11.40;;;5.85;;
28760;SDS011;15917;50.014;8.352;2023-08-20T07:07:35;11.57;;;6.15;;
28760;SDS011;15917;50.014;8.352;2023-08-20T07:10:01;12.90;;;6.20;;
28760;SDS011;15917;50.014;8.352;2023-08-20T07:12:28;11.50;;;5.47;;
28760;SDS011;15917;50.014;8.352;2023-08-20T07:14:54;6.40;;;5.22;;
28760;SDS011;15917;50.014;8.352;2023-08-20T07:17:19;12.38;;;5.53;;
28760;SDS011;15917;50.014;8.352;2023-08-20T07:19:45;13.57;;;6.10;;
28760;SDS011;15917;50.014;8.352;2023-08-20T07:22:11;15.75;;;6.18;;
28760;SDS011;15917;50.014;8.352;2023-08-20T07:24:36;11.40;;;5.85;;
28760;SDS011;15917;50.014;8.352;2023-08-20T07:27:02;9.75;;;5.47;;
28760;SDS011;15917;50.014;8.352;2023-08-20T07:29:29;12.35;;;5.80;;
28760;SDS011;15917;50.014;8.352;2023-08-20T07:31:55;12.02;;;5.32;;
28760;SDS011;15917;50.014;8.352;2023-08-20T07:34:22;10.35;;;5.45;;
28760;SDS011;15917;50.014;8.352;2023-08-20T07:36:47;12.55;;;5.97;;
28760;SDS011;15917;50.014;8.352;2023-08-20T07:39:13;9.63;;;5.78;;
28760;SDS011;15917;50.014;8.352;2023-08-20T07:41:40;10.32;;;5.30;;
28760;SDS011;15917;50.014;8.352;2023-08-20T07:44:05;10.00;;;5.00;;
28760;SDS011;15917;50.014;8.352;2023-08-20T07:46:31;12.70;;;5.50;;
28760;SDS011;15917;50.014;8.352;2023-08-20T07:48:57;11.98;;;5.47;;
28760;SDS011;15917;50.014;8.352;2023-08-20T07:51:22;17.75;;;5.40;;
28760;SDS011;15917;50.014;8.352;2023-08-20T07:53:48;17.33;;;6.28;;
28760;SDS011;15917;50.014;8.352;2023-08-20T07:56:14;7.47;;;5.15;;
28760;SDS011;15917;50.014;8.352;2023-08-20T07:58:39;17.40;;;5.38;;
28760;SDS011;15917;50.014;8.352;2023-08-20T08:01:05;16.27;;;6.13;;
28760;SDS011;15917;50.014;8.352;2023-08-20T08:03:31;24.92;;;6.57;;
28760;SDS011;15917;50.014;8.352;2023-08-20T08:05:57;11.70;;;5.05;;
28760;SDS011;15917;50.014;8.352;2023-08-20T08:08:22;10.02;;;5.78;;
28760;SDS011;15917;50.014;8.352;2023-08-20T08:10:49;20.92;;;6.03;;
28760;SDS011;15917;50.014;8.352;2023-08-20T08:13:17;9.10;;;6.03;;
28760;SDS011;15917;50.014;8.352;2023-08-20T08:15:47;9.95;;;5.60;;
28760;SDS011;15917;50.014;8.352;2023-08-20T08:18:13;10.32;;;4.85;;
28760;SDS011;15917;50.014;8.352;2023-08-20T08:20:39;12.57;;;4.68;;
28760;SDS011;15917;50.014;8.352;2023-08-20T08:23:05;9.38;;;4.78;;
28760;SDS011;15917;50.014;8.352;2023-08-20T08:25:31;8.73;;;4.20;;
28760;SDS011;15917;50.014;8.352;2023-08-20T08:28:00;14.30;;;4.97;;
28760;SDS011;15917;50.014;8.352;2023-08-20T08:30:28;8.35;;;5.22;;
28760;SDS011;15917;50.014;8.352;2023-08-20T08:32:54;15.85;;;5.95;;
28760;SDS011;15917;50.014;8.352;2023-08-20T08:35:20;12.63;;;5.43;;
28760;SDS011;15917;50.014;8.352;2023-08-20T08:37:46;7.40;;;5.13;;
28760;SDS011;15917;50.014;8.352;2023-08-20T08:40:11;10.10;;;4.93;;
28760;SDS011;15917;50.014;8.352;2023-08-20T08:42:38;14.13;;;5.45;;
28760;SDS011;15917;50.014;8.352;2023-08-20T08:45:05;11.23;;;5.45;;
28760;SDS011;15917;50.014;8.352;2023-08-20T08:47:31;10.13;;;6.35;;
28760;SDS011;15917;50.014;8.352;2023-08-20T08:49:58;8.68;;;5.18;;
28760;SDS011;15917;50.014;8.352;2023-08-20T08:52:24;9.48;;;5.07;;
28760;SDS011;15917;50.014;8.352;2023-08-20T08:54:50;7.97;;;5.70;;
28760;SDS011;15917;50.014;8.352;2023-08-20T08:57:17;17.60;;;6.65;;
28760;SDS011;15917;50.014;8.352;2023-08-20T08:59:42;15.43;;;5.75;;
28760;SDS011;15917;50.014;8.352;2023-08-20T09:02:09;12.18;;;5.38;;
28760;SDS011;15917;50.014;8.352;2023-08-20T09:04:38;8.98;;;5.07;;
28760;SDS011;15917;50.014;8.352;2023-08-20T09:07:05;9.95;;;5.50;;
28760;SDS011;15917;50.014;8.352;2023-08-20T09:09:36;11.48;;;4.95;;
28760;SDS011;15917;50.014;8.352;2023-08-20T09:12:12;12.40;;;5.10;;
28760;SDS011;15917;50.014;8.352;2023-08-20T09:14:39;10.85;;;5.63;;
28760;SDS011;15917;50.014;8.352;2023-08-20T09:17:04;12.30;;;5.68;;
28760;SDS011;15917;50.014;8.352;2023-08-20T09:19:34;17.15;;;5.78;;
28760;SDS011;15917;50.014;8.352;2023-08-20T09:22:02;12.50;;;5.80;;
28760;SDS011;15917;50.014;8.352;2023-08-20T09:24:32;12.32;;;5.97;;
28760;SDS011;15917;50.014;8.352;2023-08-20T09:27:09;10.52;;;5.82;;
28760;SDS011;15917;50.014;8.352;2023-08-20T09:32:19;9.43;;;5.13;;
28760;SDS011;15917;50.014;8.352;2023-08-20T09:34:49;11.32;;;6.35;;
28760;SDS011;15917;50.014;8.352;2023-08-20T09:37:16;11.73;;;5.27;;
28760;SDS011;15917;50.014;8.352;2023-08-20T09:39:42;9.52;;;5.65;;
28760;SDS011;15917;50.014;8.352;2023-08-20T09:42:09;7.20;;;4.93;;
28760;SDS011;15917;50.014;8.352;2023-08-20T09:44:36;7.30;;;4.70;;
28760;SDS011;15917;50.014;8.352;2023-08-20T09:47:05;7.20;;;5.05;;
28760;SDS011;15917;50.014;8.352;2023-08-20T09:49:35;12.23;;;5.30;;
28760;SDS011;15917;50.014;8.352;2023-08-20T09:52:06;8.93;;;5.45;;
28760;SDS011;15917;50.014;8.352;2023-08-20T09:54:44;7.97;;;4.93;;
28760;SDS011;15917;50.014;8.352;2023-08-20T09:57:34;7.65;;;5.15;;
28760;SDS011;15917;50.014;8.352;2023-08-20T10:00:05;6.82;;;4.75;;
28760;SDS011;15917;50.014;8.352;2023-08-20T10:02:41;9.45;;;5.10;;
28760;SDS011;15917;50.014;8.352;2023-08-20T10:05:08;9.77;;;4.97;;
28760;SDS011;15917;50.014;8.352;2023-08-20T10:07:35;9.35;;;4.75;;
28760;SDS011;15917;50.014;8.352;2023-08-20T10:10:02;8.93;;;5.28;;
28760;SDS011;15917;50.014;8.352;2023-08-20T10:12:30;11.32;;;4.63;;
28760;SDS011;15917;50.014;8.352;2023-08-20T10:14:57;9.18;;;4.32;;
28760;SDS011;15917;50.014;8.352;2023-08-20T10:17:29;5.45;;;4.55;;
28760;SDS011;15917;50.014;8.352;2023-08-20T10:19:57;12.13;;;5.03;;
28760;SDS011;15917;50.014;8.352;2023-08-20T10:25:26;10.77;;;4.97;;
28760;SDS011;15917;50.014;8.352;2023-08-20T10:27:52;9.25;;;4.68;;
28760;SDS011;15917;50.014;8.352;2023-08-20T10:30:20;8.65;;;4.38;;
28760;SDS011;15917;50.014;8.352;2023-08-20T10:32:51;8.43;;;4.22;;
28760;SDS011;15917;50.014;8.352;2023-08-20T10:35:22;6.53;;;4.50;;
28760;SDS011;15917;50.014;8.352;2023-08-20T10:38:04;10.70;;;5.20;;
28760;SDS011;15917;50.014;8.352;2023-08-20T10:40:56;10.68;;;4.30;;
28760;SDS011;15917;50.014;8.352;2023-08-20T10:46:04;10.43;;;5.20;;
28760;SDS011;15917;50.014;8.352;2023-08-20T10:48:31;8.50;;;4.95;;
28760;SDS011;15917;50.014;8.352;2023-08-20T10:51:11;10.65;;;4.65;;
28760;SDS011;15917;50.014;8.352;2023-08-20T10:53:39;9.32;;;5.07;;
28760;SDS011;15917;50.014;8.352;2023-08-20T10:56:10;8.23;;;4.72;;
28760;SDS011;15917;50.014;8.352;2023-08-20T10:58:38;8.05;;;4.97;;
28760;SDS011;15917;50.014;8.352;2023-08-20T11:01:16;9.25;;;5.10;;
28760;SDS011;15917;50.014;8.352;2023-08-20T11:03:43;11.65;;;5.18;;
28760;SDS011;15917;50.014;8.352;2023-08-20T11:06:10;12.45;;;4.95;;
28760;SDS011;15917;50.014;8.352;2023-08-20T11:08:37;7.90;;;4.10;;
28760;SDS011;15917;50.014;8.352;2023-08-20T11:11:04;9.77;;;4.28;;
28760;SDS011;15917;50.014;8.352;2023-08-20T11:13:32;9.55;;;4.57;;
28760;SDS011;15917;50.014;8.352;2023-08-20T11:15:58;11.48;;;4.95;;
28760;SDS011;15917;50.014;8.352;2023-08-20T11:18:24;10.07;;;3.73;;
28760;SDS011;15917;50.014;8.352;2023-08-20T11:20:50;7.90;;;4.88;;
28760;SDS011;15917;50.014;8.352;2023-08-20T11:23:16;9.55;;;4.40;;
28760;SDS011;15917;50.014;8.352;2023-08-20T11:25:42;7.15;;;4.80;;
28760;SDS011;15917;50.014;8.352;2023-08-20T11:28:08;6.55;;;3.95;;
28760;SDS011;15917;50.014;8.352;2023-08-20T11:30:34;9.25;;;4.53;;
28760;SDS011;15917;50.014;8.352;2023-08-20T11:33:00;7.70;;;4.47;;
28760;SDS011;15917;50.014;8.352;2023-08-20T11:35:27;8.32;;;4.45;;
28760;SDS011;15917;50.014;8.352;2023-08-20T11:37:53;5.15;;;3.70;;
28760;SDS011;15917;50.014;8.352;2023-08-20T11:40:22;10.10;;;4.43;;
28760;SDS011;15917;50.014;8.352;2023-08-20T11:42:48;10.77;;;4.65;;
28760;SDS011;15917;50.014;8.352;2023-08-20T11:45:14;8.52;;;4.35;;
28760;SDS011;15917;50.014;8.352;2023-08-20T11:47:40;9.47;;;4.03;;
28760;SDS011;15917;50.014;8.352;2023-08-20T11:50:07;8.90;;;4.63;;
28760;SDS011;15917;50.014;8.352;2023-08-20T11:52:34;6.45;;;4.47;;
28760;SDS011;15917;50.014;8.352;2023-08-20T11:57:28;9.95;;;4.15;;
28760;SDS011;15917;50.014;8.352;2023-08-20T11:59:54;6.57;;;3.88;;
28760;SDS011;15917;50.014;8.352;2023-08-20T12:02:24;8.75;;;4.22;;
28760;SDS011;15917;50.014;8.352;2023-08-20T12:04:51;5.43;;;3.55;;
28760;SDS011;15917;50.014;8.352;2023-08-20T12:07:17;7.07;;;3.60;;
28760;SDS011;15917;50.014;8.352;2023-08-20T12:09:42;12.45;;;4.70;;
28760;SDS011;15917;50.014;8.352;2023-08-20T12:12:08;7.47;;;3.88;;
28760;SDS011;15917;50.014;8.352;2023-08-20T12:14:34;6.15;;;4.03;;
28760;SDS011;15917;50.014;8.352;2023-08-20T12:17:00;8.80;;;4.40;;
28760;SDS011;15917;50.014;8.352;2023-08-20T12:19:28;7.85;;;3.55;;
28760;SDS011;15917;50.014;8.352;2023-08-20T12:21:54;12.82;;;4.10;;
28760;SDS011;15917;50.014;8.352;2023-08-20T12:24:19;8.50;;;4.10;;
28760;SDS011;15917;50.014;8.352;2023-08-20T12:26:45;4.88;;;3.78;;
28760;SDS011;15917;50.014;8.352;2023-08-20T12:29:11;7.00;;;3.88;;
28760;SDS011;15917;50.014;8.352;2023-08-20T12:31:37;6.68;;;3.60;;
28760;SDS011;15917;50.014;8.352;2023-08-20T12:34:03;6.35;;;4.28;;
28760;SDS011;15917;50.014;8.352;2023-08-20T12:36:29;13.90;;;4.18;;
28760;SDS011;15917;50.014;8.352;2023-08-20T12:38:55;5.85;;;3.95;;
28760;SDS011;15917;50.014;8.352;2023-08-20T12:41:21;5.82;;;4.03;;
28760;SDS011;15917;50.014;8.352;2023-08-20T12:43:47;11.02;;;4.25;;
28760;SDS011;15917;50.014;8.352;2023-08-20T12:46:12;7.50;;;3.70;;
28760;SDS011;15917;50.014;8.352;2023-08-20T12:48:38;7.38;;;3.63;;
28760;SDS011;15917;50.014;8.352;2023-08-20T12:51:04;7.75;;;3.63;;
28760;SDS011;15917;50.014;8.352;2023-08-20T12:53:31;4.20;;;3.15;;
28760;SDS011;15917;50.014;8.352;2023-08-20T12:55:57;5.63;;;3.73;;
28760;SDS011;15917;50.014;8.352;2023-08-20T12:58:22;9.10;;;3.33;;
28760;SDS011;15917;50.014;8.352;2023-08-20T13:00:49;7.78;;;3.60;;
28760;SDS011;15917;50.014;8.352;2023-08-20T13:03:15;7.15;;;4.55;;
28760;SDS011;15917;50.014;8.352;2023-08-20T13:05:42;5.13;;;3.72;;
28760;SDS011;15917;50.014;8.352;2023-08-20T13:08:08;5.85;;;3.55;;
28760;SDS011;15917;50.014;8.352;2023-08-20T13:10:36;4.50;;;3.15;;
28760;SDS011;15917;50.014;8.352;2023-08-20T13:13:02;8.40;;;3.50;;
28760;SDS011;15917;50.014;8.352;2023-08-20T13:15:28;8.70;;;3.60;;
28760;SDS011;15917;50.014;8.352;2023-08-20T13:17:55;7.43;;;3.47;;
28760;SDS011;15917;50.014;8.352;2023-08-20T13:20:20;6.38;;;3.40;;
28760;SDS011;15917;50.014;8.352;2023-08-20T13:22:48;8.27;;;3.90;;
28760;SDS011;15917;50.014;8.352;2023-08-20T13:25:14;5.17;;;3.03;;
28760;SDS011;15917;50.014;8.352;2023-08-20T13:27:41;7.10;;;3.10;;
28760;SDS011;15917;50.014;8.352;2023-08-20T13:30:06;7.25;;;3.15;;
28760;SDS011;15917;50.014;8.352;2023-08-20T13:32:33;9.50;;;3.47;;
28760;SDS011;15917;50.014;8.352;2023-08-20T13:35:00;9.55;;;4.30;;
28760;SDS011;15917;50.014;8.352;2023-08-20T13:37:32;6.68;;;3.03;;
28760;SDS011;15917;50.014;8.352;2023-08-20T13:40:01;5.80;;;2.92;;
28760;SDS011;15917;50.014;8.352;2023-08-20T13:42:29;4.70;;;3.10;;
28760;SDS011;15917;50.014;8.352;2023-08-20T13:44:54;5.78;;;3.38;;
28760;SDS011;15917;50.014;8.352;2023-08-20T13:47:20;8.27;;;4.15;;
28760;SDS011;15917;50.014;8.352;2023-08-20T13:49:45;5.95;;;3.30;;
28760;SDS011;15917;50.014;8.352;2023-08-20T13:52:11;8.18;;;3.47;;
28760;SDS011;15917;50.014;8.352;2023-08-20T13:54:37;8.70;;;3.85;;
28760;SDS011;15917;50.014;8.352;2023-08-20T13:57:02;6.47;;;3.17;;
28760;SDS011;15917;50.014;8.352;2023-08-20T13:59:29;5.57;;;3.37;;
28760;SDS011;15917;50.014;8.352;2023-08-20T14:01:55;9.95;;;3.25;;
28760;SDS011;15917;50.014;8.352;2023-08-20T14:04:21;8.00;;;3.33;;
28760;SDS011;15917;50.014;8.352;2023-08-20T14:06:46;6.53;;;3.05;;
28760;SDS011;15917;50.014;8.352;2023-08-20T14:09:20;6.35;;;2.67;;
28760;SDS011;15917;50.014;8.352;2023-08-20T14:12:00;8.77;;;3.40;;
28760;SDS011;15917;50.014;8.352;2023-08-20T14:14:25;6.30;;;3.10;;
28760;SDS011;15917;50.014;8.352;2023-08-20T14:16:52;7.40;;;3.17;;
28760;SDS011;15917;50.014;8.352;2023-08-20T14:19:18;6.78;;;3.35;;
28760;SDS011;15917;50.014;8.352;2023-08-20T14:21:44;4.07;;;2.92;;
28760;SDS011;15917;50.014;8.352;2023-08-20T14:24:09;6.30;;;3.50;;
28760;SDS011;15917;50.014;8.352;2023-08-20T14:26:35;5.65;;;3.33;;
28760;SDS011;15917;50.014;8.352;2023-08-20T14:29:01;11.90;;;3.50;;
28760;SDS011;15917;50.014;8.352;2023-08-20T14:31:26;6.78;;;3.35;;
28760;SDS011;15917;50.014;8.352;2023-08-20T14:33:52;4.78;;;3.08;;
28760;SDS011;15917;50.014;8.352;2023-08-20T14:36:19;5.45;;;3.35;;
28760;SDS011;15917;50.014;8.352;2023-08-20T14:38:45;8.77;;;3.50;;
28760;SDS011;15917;50.014;8.352;2023-08-20T14:41:10;6.03;;;3.60;;
28760;SDS011;15917;50.014;8.352;2023-08-20T14:43:36;3.67;;;2.65;;
28760;SDS011;15917;50.014;8.352;2023-08-20T14:46:02;6.68;;;3.25;;
28760;SDS011;15917;50.014;8.352;2023-08-20T14:48:28;5.55;;;3.30;;
28760;SDS011;15917;50.014;8.352;2023-08-20T14:50:56;6.28;;;3.08;;
28760;SDS011;15917;50.014;8.352;2023-08-20T14:53:22;6.43;;;3.53;;
28760;SDS011;15917;50.014;8.352;2023-08-20T14:55:47;6.97;;;3.78;;
28760;SDS011;15917;50.014;8.352;2023-08-20T14:58:13;10.90;;;3.75;;
28760;SDS011;15917;50.014;8.352;2023-08-20T15:00:39;6.43;;;3.42;;